createdAt,value
2022-12-29T00:01:03.259Z,25.53
2022-12-29T00:03:30.650Z,27.77
2022-12-29T00:05:58.810Z,24.50
2022-12-29T00:08:41.207Z,28.00
2022-12-29T00:11:21.315Z,175.57
2022-12-29T00:14:07.931Z,36.53
2022-12-29T00:16:37.009Z,37.60
2022-12-29T00:19:05.523Z,23.87
2022-12-29T00:21:51.816Z,38.03
2022-12-29T00:24:23.454Z,35.07
2022-12-29T00:27:30.818Z,39.50
2022-12-29T00:30:19.192Z,26.67
2022-12-29T00:33:05.095Z,55.60
2022-12-29T00:36:17.857Z,52.07
2022-12-29T00:39:27.507Z,18.40
2022-12-29T00:42:13.357Z,38.53
2022-12-29T00:44:40.666Z,16.80
2022-12-29T00:47:07.829Z,61.50
2022-12-29T00:49:35.091Z,22.97
2022-12-29T00:52:07.900Z,22.00
2022-12-29T00:54:40.221Z,11.90
2022-12-29T00:57:09.710Z,15.10
2022-12-29T00:59:41.412Z,14.17
2022-12-29T01:02:09.544Z,14.00
2022-12-29T01:04:37.591Z,21.90
2022-12-29T01:07:05.237Z,15.53
2022-12-29T01:09:52.005Z,21.70
2022-12-29T01:12:39.930Z,9.63
2022-12-29T01:15:08.768Z,18.20
2022-12-29T01:17:36.582Z,40.00
2022-12-29T01:20:04.838Z,71.83
2022-12-29T01:22:32.302Z,41.67
2022-12-29T01:24:59.542Z,18.90
2022-12-29T01:27:27.120Z,21.83
2022-12-29T01:29:54.261Z,19.03
2022-12-29T01:32:22.136Z,11.93
2022-12-29T01:34:49.294Z,11.03
2022-12-29T01:37:16.655Z,10.77
2022-12-29T01:39:45.533Z,9.57
2022-12-29T01:42:21.233Z,12.83
2022-12-29T01:44:50.666Z,11.83
2022-12-29T01:47:37.774Z,10.00
2022-12-29T01:50:13.718Z,9.33
2022-12-29T01:52:52.766Z,10.97
2022-12-29T01:55:20.081Z,8.43
2022-12-29T01:57:53.105Z,9.30
2022-12-29T02:00:20.653Z,10.57
2022-12-29T02:02:53.457Z,8.47
2022-12-29T02:05:39.403Z,10.83
2022-12-29T02:08:07.139Z,10.63
2022-12-29T02:10:36.637Z,9.47
2022-12-29T02:13:04.440Z,10.33
2022-12-29T02:15:46.827Z,11.87
2022-12-29T02:18:43.353Z,7.47
2022-12-29T02:21:19.163Z,8.50
2022-12-29T02:24:07.435Z,7.27
2022-12-29T02:27:04.173Z,7.57
2022-12-29T02:29:34.008Z,9.13
2022-12-29T02:34:54.923Z,9.20
2022-12-29T02:37:38.952Z,9.57
2022-12-29T02:40:29.339Z,7.73
2022-12-29T02:43:11.580Z,6.10
2022-12-29T02:45:44.497Z,7.10
2022-12-29T02:48:32.781Z,7.33
2022-12-29T02:51:16.796Z,6.00
2022-12-29T02:54:04.062Z,7.30
2022-12-29T02:56:32.404Z,11.23
2022-12-29T02:58:59.569Z,10.43
2022-12-29T03:02:22.310Z,13.23
2022-12-29T03:05:02.901Z,12.27
2022-12-29T03:08:00.772Z,8.60
2022-12-29T03:10:51.052Z,11.37
2022-12-29T03:13:45.863Z,11.77
2022-12-29T03:16:23.322Z,10.27
2022-12-29T03:19:09.511Z,7.90
2022-12-29T03:22:08.565Z,14.40
2022-12-29T03:24:43.163Z,8.93
2022-12-29T03:27:15.130Z,11.03
2022-12-29T03:29:48.207Z,12.43
2022-12-29T03:32:16.794Z,11.80
2022-12-29T03:34:46.410Z,7.63
2022-12-29T03:37:18.299Z,5.40
2022-12-29T03:39:46.202Z,7.57
2022-12-29T03:42:16.471Z,7.57
2022-12-29T03:44:48.847Z,8.90
2022-12-29T03:47:16.856Z,6.10
2022-12-29T03:49:45.001Z,8.40
2022-12-29T03:52:13.003Z,7.57
2022-12-29T03:54:40.135Z,8.00
2022-12-29T03:57:08.399Z,7.03
2022-12-29T03:59:35.581Z,7.33
2022-12-29T04:02:02.983Z,7.17
2022-12-29T04:04:31.038Z,8.67
2022-12-29T04:06:58.232Z,8.47
2022-12-29T04:09:25.838Z,8.30
2022-12-29T04:11:53.095Z,8.87
2022-12-29T04:14:20.297Z,12.13
2022-12-29T04:16:47.430Z,8.53
2022-12-29T04:19:14.687Z,7.70
2022-12-29T04:21:42.211Z,10.73
2022-12-29T04:24:09.538Z,8.83
2022-12-29T04:26:37.180Z,11.03
2022-12-29T04:29:04.479Z,8.07
2022-12-29T04:31:34.731Z,10.47
2022-12-29T04:34:02.236Z,9.37
2022-12-29T04:36:30.268Z,7.53
2022-12-29T04:38:58.161Z,9.33
2022-12-29T04:41:26.050Z,12.60
2022-12-29T04:43:53.258Z,11.37
2022-12-29T04:46:20.570Z,10.43
2022-12-29T04:48:48.167Z,16.40
2022-12-29T04:51:15.392Z,9.07
2022-12-29T04:53:42.810Z,14.53
2022-12-29T04:56:10.661Z,18.70
2022-12-29T04:58:38.371Z,17.33
2022-12-29T05:01:05.545Z,10.50
2022-12-29T05:03:32.835Z,8.47
2022-12-29T05:06:00.457Z,10.60
2022-12-29T05:08:28.483Z,10.20
2022-12-29T05:10:57.241Z,26.43
2022-12-29T05:13:24.809Z,13.83
2022-12-29T05:15:55.488Z,12.43
2022-12-29T05:18:22.850Z,10.27
2022-12-29T05:20:50.134Z,11.37
2022-12-29T05:23:18.181Z,16.30
2022-12-29T05:25:49.279Z,19.13
2022-12-29T05:28:16.582Z,14.13
2022-12-29T05:30:48.922Z,10.73
2022-12-29T05:33:16.061Z,11.87
2022-12-29T05:35:43.344Z,19.60
2022-12-29T05:38:10.801Z,24.10
2022-12-29T05:40:38.102Z,28.53
2022-12-29T05:43:05.252Z,12.33
2022-12-29T05:45:32.562Z,12.33
2022-12-29T05:47:59.773Z,15.60
2022-12-29T05:50:28.102Z,16.10
2022-12-29T05:52:55.369Z,16.07
2022-12-29T05:55:22.729Z,13.80
2022-12-29T05:57:53.005Z,8.60
2022-12-29T06:00:20.336Z,7.60
2022-12-29T06:02:47.856Z,7.67
2022-12-29T06:05:15.340Z,7.63
2022-12-29T06:07:42.683Z,13.57
2022-12-29T06:10:10.268Z,8.20
2022-12-29T06:12:37.700Z,7.57
2022-12-29T06:15:05.631Z,8.90
2022-12-29T06:17:32.940Z,12.73
2022-12-29T06:20:00.328Z,11.73
2022-12-29T06:22:27.545Z,23.13
2022-12-29T06:24:56.171Z,16.40
2022-12-29T06:27:26.161Z,12.80
2022-12-29T06:29:53.433Z,20.97
2022-12-29T06:32:20.951Z,15.10
2022-12-29T06:34:48.209Z,27.03
2022-12-29T06:37:15.985Z,29.30
2022-12-29T06:39:44.718Z,88.13
2022-12-29T06:42:12.168Z,99.13
2022-12-29T06:44:39.640Z,48.63
2022-12-29T06:47:06.946Z,26.07
2022-12-29T06:49:34.956Z,19.93
2022-12-29T06:52:10.769Z,11.50
2022-12-29T06:54:40.094Z,16.20
2022-12-29T06:57:07.722Z,18.23
2022-12-29T06:59:35.033Z,15.57
2022-12-29T07:02:03.577Z,11.03
2022-12-29T07:04:33.348Z,16.53
2022-12-29T07:07:00.752Z,16.77
2022-12-29T07:09:28.084Z,23.03
2022-12-29T07:11:55.252Z,33.57
2022-12-29T07:14:22.413Z,16.40
2022-12-29T07:16:49.815Z,8.80
2022-12-29T07:19:17.033Z,4.57
2022-12-29T07:21:47.251Z,5.63
2022-12-29T07:24:14.540Z,4.33
2022-12-29T07:26:42.756Z,4.27
2022-12-29T07:29:10.106Z,3.43
2022-12-29T07:31:37.618Z,5.40
2022-12-29T07:34:04.751Z,5.27
2022-12-29T07:36:34.556Z,4.87
2022-12-29T07:39:03.106Z,5.00
2022-12-29T07:41:30.792Z,7.53
2022-12-29T07:43:57.952Z,4.47
2022-12-29T07:46:54.391Z,7.00
2022-12-29T07:49:12.349Z,6.60
2022-12-29T07:51:39.695Z,5.83
2022-12-29T07:54:07.465Z,5.30
2022-12-29T07:56:34.589Z,6.40
2022-12-29T07:59:01.812Z,7.70
2022-12-29T08:01:29.214Z,8.67
2022-12-29T08:03:57.773Z,11.20
2022-12-29T08:06:25.649Z,12.17
2022-12-29T08:08:52.795Z,3.80
2022-12-29T08:11:20.006Z,7.10
2022-12-29T08:13:47.268Z,4.97
2022-12-29T08:16:14.754Z,4.97
2022-12-29T08:18:42.017Z,4.77
2022-12-29T08:21:09.296Z,4.57
2022-12-29T08:23:37.414Z,3.53
2022-12-29T08:26:06.834Z,3.83
2022-12-29T08:28:34.538Z,4.80
2022-12-29T08:31:03.193Z,4.70
2022-12-29T08:33:31.218Z,9.67
2022-12-29T08:36:02.665Z,6.00
2022-12-29T08:38:30.372Z,6.37
2022-12-29T08:41:05.136Z,9.67
2022-12-29T08:43:32.819Z,9.57
2022-12-29T08:46:01.176Z,16.63
2022-12-29T08:48:29.287Z,10.57
2022-12-29T08:50:56.618Z,4.33
2022-12-29T08:53:23.803Z,5.37
2022-12-29T08:56:04.124Z,5.13
2022-12-29T08:58:32.853Z,3.70
2022-12-29T09:01:00.413Z,4.37
2022-12-29T09:04:12.276Z,6.27
2022-12-29T09:06:18.228Z,7.80
2022-12-29T09:08:45.783Z,6.60
2022-12-29T09:11:15.577Z,8.37
2022-12-29T09:13:43.091Z,10.27
2022-12-29T09:16:10.531Z,8.20
2022-12-29T09:18:38.170Z,8.70
2022-12-29T09:21:07.108Z,8.63
2022-12-29T09:23:34.950Z,7.57
2022-12-29T09:26:02.384Z,9.40
2022-12-29T09:28:30.751Z,8.30
2022-12-29T09:30:58.679Z,6.47
2022-12-29T09:33:26.834Z,7.43
2022-12-29T09:35:56.734Z,7.67
2022-12-29T09:38:25.205Z,9.37
2022-12-29T09:40:57.472Z,6.67
2022-12-29T09:43:45.929Z,8.00
2022-12-29T09:46:30.205Z,8.50
2022-12-29T09:49:21.792Z,9.67
2022-12-29T09:51:56.067Z,11.07
2022-12-29T09:54:38.818Z,10.83
2022-12-29T09:57:15.033Z,10.10
2022-12-29T09:59:45.439Z,16.33
2022-12-29T10:02:30.639Z,15.67
2022-12-29T10:04:58.347Z,15.80
2022-12-29T10:07:43.025Z,15.67
2022-12-29T10:10:36.898Z,14.00
2022-12-29T10:13:04.019Z,10.43
2022-12-29T10:15:43.464Z,11.37
2022-12-29T10:18:13.675Z,9.70
2022-12-29T10:21:12.551Z,10.83
2022-12-29T10:23:51.793Z,11.50
2022-12-29T10:26:29.798Z,13.47
2022-12-29T10:29:04.852Z,8.63
2022-12-29T10:31:46.637Z,10.10
2022-12-29T10:34:23.885Z,7.73
2022-12-29T10:36:58.470Z,9.63
2022-12-29T10:39:39.670Z,17.67
2022-12-29T10:42:22.997Z,12.77
2022-12-29T10:44:50.323Z,7.57
2022-12-29T10:47:21.558Z,13.67
2022-12-29T10:49:49.893Z,10.37
2022-12-29T10:52:21.176Z,12.97
2022-12-29T10:54:55.316Z,16.67
2022-12-29T10:57:42.086Z,18.37
2022-12-29T11:00:17.768Z,23.30
2022-12-29T11:02:45.677Z,35.90
2022-12-29T11:05:34.121Z,32.63
2022-12-29T11:08:06.370Z,34.03
2022-12-29T11:10:44.733Z,39.43
2022-12-29T11:13:25.871Z,29.70
2022-12-29T11:15:53.751Z,28.30
2022-12-29T11:18:26.966Z,26.27
2022-12-29T11:21:00.510Z,22.93
2022-12-29T11:23:27.793Z,18.63
2022-12-29T11:26:22.041Z,88.53
2022-12-29T11:29:22.601Z,22.50
2022-12-29T11:31:52.989Z,14.10
2022-12-29T11:34:32.268Z,11.17
2022-12-29T11:37:07.718Z,14.17
2022-12-29T11:39:42.318Z,11.30
2022-12-29T11:42:17.641Z,8.33
2022-12-29T11:44:47.576Z,12.30
2022-12-29T11:47:34.833Z,10.70
2022-12-29T11:50:08.874Z,13.63
2022-12-29T11:52:40.847Z,14.27
2022-12-29T11:55:23.209Z,15.77
2022-12-29T11:57:52.804Z,17.73
2022-12-29T12:00:23.177Z,18.77
2022-12-29T12:03:01.816Z,13.43
2022-12-29T12:05:57.428Z,10.43
2022-12-29T12:08:41.607Z,11.00
2022-12-29T12:11:15.865Z,9.43
2022-12-29T12:13:57.268Z,14.67
2022-12-29T12:16:29.752Z,13.90
2022-12-29T12:19:03.215Z,16.10
2022-12-29T12:21:45.378Z,35.67
2022-12-29T12:24:41.087Z,27.70
2022-12-29T12:27:20.549Z,25.73
2022-12-29T12:29:59.864Z,30.27
2022-12-29T12:32:32.965Z,35.67
2022-12-29T12:35:00.490Z,34.30
2022-12-29T12:37:37.073Z,48.70
2022-12-29T12:40:20.669Z,29.70
2022-12-29T12:43:02.475Z,49.57
2022-12-29T12:45:45.067Z,27.27
2022-12-29T12:48:22.480Z,18.07
2022-12-29T12:51:08.785Z,25.23
2022-12-29T12:53:44.843Z,34.73
2022-12-29T12:56:17.812Z,34.13
2022-12-29T12:58:55.348Z,20.90
2022-12-29T13:01:37.739Z,89.40
2022-12-29T13:04:35.850Z,58.57
2022-12-29T13:07:20.781Z,32.93
2022-12-29T13:10:00.324Z,22.57
2022-12-29T13:12:40.593Z,35.53
2022-12-29T13:15:17.469Z,13.10
2022-12-29T13:18:03.735Z,13.37
2022-12-29T13:20:43.813Z,15.03
2022-12-29T13:23:39.046Z,15.23
2022-12-29T13:26:37.143Z,18.47
2022-12-29T13:29:42.578Z,27.33
2022-12-29T13:32:41.739Z,21.90
2022-12-29T13:35:09.542Z,15.50
2022-12-29T13:37:49.618Z,26.77
2022-12-29T13:40:19.687Z,26.00
2022-12-29T13:42:48.203Z,26.23
2022-12-29T13:45:19.683Z,31.17
2022-12-29T13:47:58.441Z,24.20
2022-12-29T13:50:29.952Z,27.47
2022-12-29T13:53:26.827Z,30.73
2022-12-29T13:56:21.877Z,75.47
2022-12-29T13:59:03.934Z,133.53
2022-12-29T14:02:29.315Z,24.97
2022-12-29T14:05:06.864Z,44.73
2022-12-29T14:07:41.143Z,42.60
2022-12-29T14:10:30.445Z,52.93
2022-12-29T14:13:15.837Z,40.27
2022-12-29T14:15:46.418Z,32.70
2022-12-29T14:18:21.280Z,25.00
2022-12-29T14:21:17.556Z,34.40
2022-12-29T14:23:46.292Z,26.57
2022-12-29T14:26:31.377Z,34.40
2022-12-29T14:29:26.116Z,24.03
2022-12-29T14:31:54.366Z,32.97
2022-12-29T14:34:22.184Z,29.23
2022-12-29T14:36:55.865Z,25.60
2022-12-29T14:39:35.107Z,33.97
2022-12-29T14:42:11.088Z,30.30
2022-12-29T14:45:03.318Z,35.23
2022-12-29T14:47:32.345Z,33.17
2022-12-29T14:50:17.995Z,37.87
2022-12-29T14:53:04.185Z,51.80
2022-12-29T14:55:48.108Z,68.70
2022-12-29T14:58:28.566Z,48.27
2022-12-29T15:00:56.633Z,50.10
2022-12-29T15:03:33.955Z,53.83
2022-12-29T15:06:10.317Z,45.27
2022-12-29T15:09:00.838Z,33.50
2022-12-29T15:11:37.492Z,36.70
2022-12-29T15:14:08.353Z,38.70
2022-12-29T15:16:38.295Z,39.53
2022-12-29T15:19:06.928Z,32.73
2022-12-29T15:21:37.383Z,33.33
2022-12-29T15:24:05.621Z,28.53
2022-12-29T15:26:42.290Z,35.50
2022-12-29T15:29:32.703Z,61.53
2022-12-29T15:32:18.633Z,41.57
2022-12-29T15:34:47.951Z,37.63
2022-12-29T15:37:23.503Z,30.90
2022-12-29T15:39:51.603Z,30.97
2022-12-29T15:42:53.346Z,48.33
2022-12-29T15:45:20.712Z,35.67
2022-12-29T15:47:50.750Z,45.90
2022-12-29T15:50:41.615Z,30.03
2022-12-29T15:53:16.501Z,20.60
2022-12-29T15:55:45.591Z,20.13
2022-12-29T15:58:27.989Z,24.27
2022-12-29T16:00:58.861Z,30.40
2022-12-29T16:03:31.320Z,35.20
2022-12-29T16:06:26.316Z,58.67
2022-12-29T16:09:06.268Z,65.17
2022-12-29T16:11:38.365Z,37.17
2022-12-29T16:14:18.828Z,29.90
2022-12-29T16:16:48.717Z,39.97
2022-12-29T16:19:40.895Z,35.97
2022-12-29T16:22:18.861Z,57.53
2022-12-29T16:24:47.355Z,61.27
2022-12-29T16:27:48.453Z,64.53
2022-12-29T16:30:36.215Z,56.67
2022-12-29T16:33:06.183Z,43.20
2022-12-29T16:35:47.076Z,35.57
2022-12-29T16:38:17.463Z,104.13
2022-12-29T16:41:28.956Z,54.70
2022-12-29T16:44:21.533Z,19.97
2022-12-29T16:47:11.721Z,28.87
2022-12-29T16:49:44.660Z,57.67
2022-12-29T16:52:20.331Z,70.93
2022-12-29T16:54:57.950Z,53.63
2022-12-29T16:57:29.161Z,54.77
2022-12-29T17:00:02.500Z,54.83
2022-12-29T17:02:31.752Z,45.37
2022-12-29T17:04:59.543Z,40.57
2022-12-29T17:07:29.188Z,38.27
2022-12-29T17:09:56.591Z,44.73
2022-12-29T17:12:32.327Z,54.93
2022-12-29T17:15:13.884Z,38.20
2022-12-29T17:17:47.681Z,46.57
2022-12-29T17:20:22.645Z,53.03
2022-12-29T17:22:51.747Z,64.97
2022-12-29T17:25:22.483Z,70.67
2022-12-29T17:27:58.186Z,76.50
2022-12-29T17:30:32.954Z,66.93
2022-12-29T17:33:09.556Z,54.57
2022-12-29T17:35:37.565Z,58.77
2022-12-29T17:38:28.601Z,74.90
2022-12-29T17:40:55.980Z,68.70
2022-12-29T17:43:25.742Z,67.07
2022-12-29T17:45:59.373Z,67.47
2022-12-29T17:48:27.189Z,66.23
2022-12-29T17:50:58.021Z,68.80
2022-12-29T17:53:28.166Z,80.27
2022-12-29T17:55:55.553Z,64.40
2022-12-29T17:58:25.741Z,21.93
2022-12-29T18:00:55.967Z,20.53
2022-12-29T18:03:35.367Z,15.07
2022-12-29T18:06:09.416Z,15.73
2022-12-29T18:08:38.958Z,38.97
2022-12-29T18:11:40.670Z,47.73
2022-12-29T18:14:16.114Z,36.57
2022-12-29T18:16:44.186Z,85.70
2022-12-29T18:19:11.492Z,75.10
2022-12-29T18:21:40.532Z,58.17
2022-12-29T18:24:15.698Z,39.03
2022-12-29T18:26:42.972Z,38.23
2022-12-29T18:29:10.131Z,31.63
2022-12-29T18:31:38.118Z,33.27
2022-12-29T18:34:15.590Z,31.40
2022-12-29T18:36:42.921Z,27.90
2022-12-29T18:39:12.361Z,34.43
2022-12-29T18:41:40.219Z,32.37
2022-12-29T18:44:13.659Z,32.60
2022-12-29T18:46:41.209Z,29.87
2022-12-29T18:49:09.143Z,31.10
2022-12-29T18:51:36.958Z,31.67
2022-12-29T18:54:04.410Z,23.57
2022-12-29T18:56:31.983Z,21.77
2022-12-29T18:58:59.308Z,29.33
2022-12-29T19:01:28.321Z,32.17
2022-12-29T19:03:56.391Z,31.10
2022-12-29T19:06:23.763Z,33.43
2022-12-29T19:08:50.968Z,37.37
2022-12-29T19:11:18.491Z,47.53
2022-12-29T19:13:45.966Z,31.37
2022-12-29T19:16:25.320Z,22.97
2022-12-29T19:19:08.995Z,25.20
2022-12-29T19:21:38.202Z,35.00
2022-12-29T19:24:06.120Z,23.90
2022-12-29T19:26:37.012Z,34.00
2022-12-29T19:29:06.381Z,22.90
2022-12-29T19:31:34.030Z,47.97
2022-12-29T19:34:03.435Z,56.97
2022-12-29T19:36:31.111Z,62.60
2022-12-29T19:38:58.744Z,68.80
2022-12-29T19:41:26.344Z,50.90
2022-12-29T19:43:53.697Z,23.37
2022-12-29T19:46:21.391Z,42.17
2022-12-29T19:48:48.640Z,29.67
2022-12-29T19:51:17.479Z,23.53
2022-12-29T19:53:46.075Z,16.23
2022-12-29T19:56:14.490Z,37.73
2022-12-29T19:58:46.991Z,41.63
2022-12-29T20:01:18.364Z,57.63
2022-12-29T20:03:46.162Z,22.43
2022-12-29T20:06:14.462Z,27.47
2022-12-29T20:08:42.347Z,26.67
2022-12-29T20:11:12.540Z,31.37
2022-12-29T20:13:40.471Z,39.27
2022-12-29T20:16:12.149Z,30.67
2022-12-29T20:18:39.892Z,41.20
2022-12-29T20:21:10.038Z,47.73
2022-12-29T20:23:40.626Z,53.00
2022-12-29T20:26:13.536Z,27.17
2022-12-29T20:28:41.038Z,37.50
2022-12-29T20:31:19.796Z,27.80
2022-12-29T20:33:48.267Z,22.67
2022-12-29T20:36:19.061Z,19.60
2022-12-29T20:38:46.938Z,24.87
2022-12-29T20:41:15.188Z,20.60
2022-12-29T20:43:43.160Z,26.50
2022-12-29T20:46:11.665Z,24.00
2022-12-29T20:48:39.507Z,44.37
2022-12-29T20:51:07.019Z,36.37
2022-12-29T20:53:36.376Z,173.03
2022-12-29T20:56:10.891Z,168.63
2022-12-29T20:59:00.310Z,106.57
2022-12-29T21:01:27.052Z,107.23
2022-12-29T21:03:54.589Z,47.70
2022-12-29T21:06:22.062Z,48.60
2022-12-29T21:08:51.328Z,44.00
2022-12-29T21:11:19.221Z,45.33
2022-12-29T21:13:46.432Z,65.07
2022-12-29T21:16:15.544Z,34.90
2022-12-29T21:18:43.264Z,32.87
2022-12-29T21:21:22.573Z,34.50
2022-12-29T21:23:50.667Z,46.40
2022-12-29T21:26:20.369Z,109.43
2022-12-29T21:28:47.621Z,138.53
2022-12-29T21:31:23.807Z,163.23
2022-12-29T21:33:52.449Z,70.30
2022-12-29T21:36:19.977Z,53.13
2022-12-29T21:38:47.493Z,54.00
2022-12-29T21:41:17.416Z,34.80
2022-12-29T21:44:08.308Z,49.63
2022-12-29T21:46:38.142Z,55.40
2022-12-29T21:49:06.732Z,51.00
2022-12-29T21:51:55.647Z,114.70
2022-12-29T21:54:44.833Z,134.53
2022-12-29T21:57:34.230Z,74.93
2022-12-29T22:00:20.392Z,114.20
2022-12-29T22:03:07.032Z,73.00
2022-12-29T22:05:53.068Z,35.37
2022-12-29T22:08:38.875Z,47.03
2022-12-29T22:11:28.255Z,43.37
2022-12-29T22:13:56.602Z,53.13
2022-12-29T22:16:25.774Z,40.17
2022-12-29T22:18:56.187Z,55.87
2022-12-29T22:21:24.153Z,49.47
2022-12-29T22:23:51.570Z,76.77
2022-12-29T22:26:19.026Z,224.23
2022-12-29T22:28:48.100Z,159.27
2022-12-29T22:31:33.000Z,177.70
2022-12-29T22:34:04.918Z,197.97
2022-12-29T22:36:32.982Z,178.93
2022-12-29T22:39:00.326Z,145.00
2022-12-29T22:41:27.597Z,119.17
2022-12-29T22:43:55.584Z,132.23
2022-12-29T22:46:23.168Z,124.73
2022-12-29T22:48:50.487Z,165.63
2022-12-29T22:51:17.817Z,151.70
2022-12-29T22:53:45.834Z,111.60
2022-12-29T22:56:14.394Z,99.57
2022-12-29T22:58:43.589Z,100.47
2022-12-29T23:01:13.083Z,95.97
2022-12-29T23:03:40.761Z,88.07
2022-12-29T23:06:14.673Z,66.63
2022-12-29T23:08:42.001Z,32.90
2022-12-29T23:11:12.837Z,24.20
2022-12-29T23:13:41.312Z,47.13
2022-12-29T23:16:09.249Z,60.50
2022-12-29T23:18:37.411Z,88.37
2022-12-29T23:21:05.101Z,68.37
2022-12-29T23:23:50.750Z,59.53
2022-12-29T23:26:19.415Z,57.83
2022-12-29T23:28:46.876Z,48.37
2022-12-29T23:31:14.924Z,32.20
2022-12-29T23:33:42.465Z,55.23
2022-12-29T23:36:10.581Z,19.07
2022-12-29T23:38:37.863Z,15.37
2022-12-29T23:41:06.099Z,21.53
2022-12-29T23:43:34.706Z,28.47
2022-12-29T23:46:29.878Z,16.47
2022-12-29T23:48:57.487Z,38.47
2022-12-29T23:51:24.754Z,30.80
2022-12-29T23:53:51.985Z,28.13
2022-12-29T23:56:21.787Z,38.57
2022-12-29T23:58:50.074Z,33.73
